Time;durP1;ratioP1;P1;durP2;ratioP2;P2;SDS_P1;SDS_P2;PMS_P1;PMS_P2;Temp;Humidity;BMP_temperature;BMP_pressure;BME280_temperature;BME280_humidity;BME280_pressure;Samples;Min_cycle;Max_cycle;Signal;HPM_P1;HPM_P2
2021/12/18 00:00:53;;;;;;;1.75;1.27;;;;;;;;;;5093651;28;20376;-57
2021/12/18 00:03:19;;;;;;;2.35;1.23;;;;;;;;;;5093169;28;20032;-56
2021/12/18 00:05:44;;;;;;;1.67;1.05;;;;;;;;;;5092673;28;20028;-57
2021/12/18 00:08:10;;;;;;;3.30;1.17;;;;;;;;;;5093190;28;20040;-57
2021/12/18 00:10:36;;;;;;;1.17;1.08;;;;;;;;;;5093786;28;20024;-58
2021/12/18 00:13:01;;;;;;;2.22;1.27;;;;;;;;;;5095804;28;20043;-58
2021/12/18 00:15:26;;;;;;;2.47;1.35;;;;;;;;;;5113387;28;20024;-56
2021/12/18 00:17:52;;;;;;;1.83;1.00;;;;;;;;;;5086274;28;20028;-56
2021/12/18 00:20:17;;;;;;;1.10;1.00;;;;;;;;;;5099664;28;20028;-57
2021/12/18 00:22:43;;;;;;;1.40;0.98;;;;;;;;;;5093615;28;20024;-57
2021/12/18 00:25:08;;;;;;;1.05;0.95;;;;;;;;;;5092769;28;20032;-58
2021/12/18 00:27:33;;;;;;;1.42;1.10;;;;;;;;;;5093075;28;20040;-58
2021/12/18 00:29:59;;;;;;;1.38;1.08;;;;;;;;;;5093348;28;20028;-56
2021/12/18 00:32:24;;;;;;;1.98;1.20;;;;;;;;;;5092805;28;20480;-57
2021/12/18 00:34:49;;;;;;;1.05;0.85;;;;;;;;;;5092637;28;20372;-56
2021/12/18 00:37:15;;;;;;;1.48;1.10;;;;;;;;;;5093298;28;20456;-57
2021/12/18 00:39:49;;;;;;;1.08;0.80;;;;;;;;;;5092519;28;20032;-57
2021/12/18 00:42:35;;;;;;;1.00;0.80;;;;;;;;;;5074825;28;20020;-57
2021/12/18 00:45:00;;;;;;;3.97;0.98;;;;;;;;;;5092770;28;20028;-57
2021/12/18 00:47:26;;;;;;;2.88;0.77;;;;;;;;;;5092796;28;20043;-57
2021/12/18 00:49:51;;;;;;;1.52;0.98;;;;;;;;;;5092955;28;20360;-56
2021/12/18 00:52:16;;;;;;;1.17;0.93;;;;;;;;;;5091997;28;20024;-57
2021/12/18 00:54:41;;;;;;;1.20;0.93;;;;;;;;;;5092376;28;20028;-57
2021/12/18 00:57:07;;;;;;;1.35;0.93;;;;;;;;;;5092410;28;20043;-57
2021/12/18 00:59:33;;;;;;;1.15;0.77;;;;;;;;;;5092889;28;20107;-57
2021/12/18 01:01:59;;;;;;;1.45;1.00;;;;;;;;;;5092640;28;20039;-57
2021/12/18 01:04:24;;;;;;;0.90;0.77;;;;;;;;;;5092905;28;20040;-57
2021/12/18 01:06:49;;;;;;;1.55;0.90;;;;;;;;;;5092243;28;20508;-57
2021/12/18 01:09:17;;;;;;;0.75;0.70;;;;;;;;;;5092214;28;20093;-57
2021/12/18 01:11:45;;;;;;;1.45;1.20;;;;;;;;;;5093005;28;20028;-57
2021/12/18 01:16:58;;;;;;;0.68;0.60;;;;;;;;;;5092109;28;20059;-56
2021/12/18 01:24:51;;;;;;;0.98;0.60;;;;;;;;;;5092577;28;20569;-57
2021/12/18 01:27:17;;;;;;;1.60;1.05;;;;;;;;;;5092016;28;20036;-57
2021/12/18 01:29:42;;;;;;;1.70;1.17;;;;;;;;;;5092466;28;20044;-57
2021/12/18 01:32:08;;;;;;;1.70;1.08;;;;;;;;;;5092720;28;20032;-57
2021/12/18 01:34:34;;;;;;;1.55;0.93;;;;;;;;;;5108453;28;20116;-57
2021/12/18 01:36:59;;;;;;;1.40;0.95;;;;;;;;;;5092075;28;20462;-57
2021/12/18 01:39:24;;;;;;;0.95;0.80;;;;;;;;;;5092284;28;20039;-57
2021/12/18 01:42:26;;;;;;;1.00;0.80;;;;;;;;;;5092661;28;20115;-57
2021/12/18 01:52:34;;;;;;;1.40;1.10;;;;;;;;;;5095148;28;20023;-57
2021/12/18 01:55:00;;;;;;;2.17;1.05;;;;;;;;;;5095944;28;20465;-57
2021/12/18 01:57:25;;;;;;;2.03;0.93;;;;;;;;;;5095625;28;20059;-57
2021/12/18 01:59:51;;;;;;;1.73;0.77;;;;;;;;;;5096124;28;20040;-57
2021/12/18 02:02:17;;;;;;;1.10;0.82;;;;;;;;;;5096214;28;20032;-57
2021/12/18 02:04:42;;;;;;;1.55;0.82;;;;;;;;;;5096769;28;20048;-58
2021/12/18 02:07:07;;;;;;;1.02;0.80;;;;;;;;;;5096097;28;20396;-56
2021/12/18 02:09:55;;;;;;;1.35;0.80;;;;;;;;;;5095866;28;20040;-57
2021/12/18 02:12:20;;;;;;;1.05;0.50;;;;;;;;;;5095440;28;20035;-57
2021/12/18 02:22:55;;;;;;;1.45;0.90;;;;;;;;;;5013631;28;20072;-56
2021/12/18 02:25:23;;;;;;;1.08;0.90;;;;;;;;;;5013557;28;20041;-58
2021/12/18 02:27:49;;;;;;;0.88;0.80;;;;;;;;;;5012525;28;20081;-56
2021/12/18 02:30:14;;;;;;;2.28;0.80;;;;;;;;;;4993767;28;20034;-58
2021/12/18 02:32:40;;;;;;;2.08;0.82;;;;;;;;;;4993820;28;20026;-57
2021/12/18 02:35:05;;;;;;;1.08;0.68;;;;;;;;;;4993648;28;20043;-58
2021/12/18 02:37:38;;;;;;;1.15;0.85;;;;;;;;;;4994113;28;20039;-58
2021/12/18 02:42:50;;;;;;;3.03;1.05;;;;;;;;;;4973886;28;20059;-58
2021/12/18 02:45:15;;;;;;;1.55;1.08;;;;;;;;;;4973677;28;20503;-58
2021/12/18 02:47:40;;;;;;;1.23;0.55;;;;;;;;;;4973508;28;20170;-58
2021/12/18 02:50:06;;;;;;;0.93;0.65;;;;;;;;;;4973677;28;20031;-58
2021/12/18 02:52:31;;;;;;;1.83;0.80;;;;;;;;;;4974428;28;20526;-57
2021/12/18 02:54:57;;;;;;;1.55;0.80;;;;;;;;;;4973600;28;20058;-57
2021/12/18 02:57:22;;;;;;;0.73;0.70;;;;;;;;;;4985046;28;20127;-57
2021/12/18 02:59:49;;;;;;;1.35;0.75;;;;;;;;;;5001228;28;20030;-57
2021/12/18 03:02:16;;;;;;;0.82;0.60;;;;;;;;;;5012728;28;20109;-56
2021/12/18 03:04:43;;;;;;;1.08;0.77;;;;;;;;;;5030284;28;20065;-56
2021/12/18 03:07:11;;;;;;;1.02;0.68;;;;;;;;;;5032166;28;20147;-58
2021/12/18 03:23:34;;;;;;;0.68;0.60;;;;;;;;;;5114697;28;20502;-56
2021/12/18 03:26:00;;;;;;;1.40;0.70;;;;;;;;;;5114607;28;20030;-57
2021/12/18 03:28:26;;;;;;;0.57;0.52;;;;;;;;;;5114744;28;20060;-56
2021/12/18 03:30:51;;;;;;;1.50;0.70;;;;;;;;;;5114576;28;20128;-56
2021/12/18 03:33:17;;;;;;;0.80;0.40;;;;;;;;;;5114671;28;20041;-56
2021/12/18 03:35:42;;;;;;;2.05;1.33;;;;;;;;;;5111071;28;20023;-55
2021/12/18 03:38:09;;;;;;;0.73;0.52;;;;;;;;;;5093864;28;20032;-56
2021/12/18 03:40:35;;;;;;;0.95;0.60;;;;;;;;;;5094863;28;20070;-56
2021/12/18 03:43:00;;;;;;;0.95;0.57;;;;;;;;;;5094006;28;20040;-56
2021/12/18 03:45:25;;;;;;;0.82;0.80;;;;;;;;;;5093909;28;20028;-56
2021/12/18 03:47:51;;;;;;;0.73;0.63;;;;;;;;;;5093758;28;20056;-56
2021/12/18 03:50:16;;;;;;;0.40;0.32;;;;;;;;;;5093907;28;20082;-56
2021/12/18 03:52:41;;;;;;;1.58;0.50;;;;;;;;;;5094471;28;20360;-56
2021/12/18 03:55:07;;;;;;;2.22;0.68;;;;;;;;;;5093873;28;20137;-56
2021/12/18 03:57:33;;;;;;;1.08;0.40;;;;;;;;;;5093332;28;20040;-56
2021/12/18 03:59:58;;;;;;;0.80;0.50;;;;;;;;;;5093616;28;20029;-56
2021/12/18 04:02:23;;;;;;;1.60;0.30;;;;;;;;;;5093550;28;20024;-56
2021/12/18 04:04:48;;;;;;;0.43;0.43;;;;;;;;;;5108376;28;20403;-56
2021/12/18 04:07:15;;;;;;;1.52;0.63;;;;;;;;;;5093818;28;20498;-55
2021/12/18 04:09:40;;;;;;;1.23;0.60;;;;;;;;;;5093296;28;20080;-56
2021/12/18 04:12:05;;;;;;;0.88;0.40;;;;;;;;;;5108490;28;20115;-56
2021/12/18 04:14:30;;;;;;;0.57;0.55;;;;;;;;;;5092521;28;20430;-56
2021/12/18 04:16:56;;;;;;;0.45;0.38;;;;;;;;;;5093193;28;20067;-56
2021/12/18 04:19:21;;;;;;;0.80;0.45;;;;;;;;;;5093471;28;20051;-56
2021/12/18 04:21:46;;;;;;;0.93;0.52;;;;;;;;;;5093308;28;20032;-56
2021/12/18 04:24:12;;;;;;;0.57;0.50;;;;;;;;;;5093416;28;20039;-56
2021/12/18 04:26:37;;;;;;;0.60;0.50;;;;;;;;;;5093083;28;20129;-56
2021/12/18 04:29:05;;;;;;;0.60;0.50;;;;;;;;;;5092942;28;20028;-56
2021/12/18 04:31:31;;;;;;;0.60;0.45;;;;;;;;;;5093565;28;20133;-56
2021/12/18 04:33:56;;;;;;;0.57;0.57;;;;;;;;;;5092847;28;20123;-57
2021/12/18 04:36:21;;;;;;;0.70;0.60;;;;;;;;;;5092834;28;20036;-56
2021/12/18 04:38:47;;;;;;;0.40;0.40;;;;;;;;;;5092618;28;20021;-56
2021/12/18 04:41:20;;;;;;;0.50;0.50;;;;;;;;;;5093298;28;20028;-56
2021/12/18 04:43:45;;;;;;;0.30;0.30;;;;;;;;;;5093242;28;20032;-56
2021/12/18 04:46:10;;;;;;;0.30;0.30;;;;;;;;;;5093446;28;20117;-58
2021/12/18 04:48:35;;;;;;;0.40;0.40;;;;;;;;;;5092461;28;20545;-57
2021/12/18 04:51:03;;;;;;;0.60;0.50;;;;;;;;;;5092790;28;20063;-57
2021/12/18 04:53:28;;;;;;;0.85;0.40;;;;;;;;;;5092974;28;20496;-57
2021/12/18 04:55:53;;;;;;;0.20;0.20;;;;;;;;;;5092727;28;20107;-58
2021/12/18 04:58:18;;;;;;;0.40;0.40;;;;;;;;;;5092886;28;20013;-57
2021/12/18 05:00:47;;;;;;;0.40;0.40;;;;;;;;;;5090973;28;20032;-56
2021/12/18 05:03:14;;;;;;;0.73;0.50;;;;;;;;;;5084080;28;20035;-57
2021/12/18 05:05:40;;;;;;;0.63;0.40;;;;;;;;;;5096250;28;20123;-57
2021/12/18 05:08:05;;;;;;;0.20;0.20;;;;;;;;;;5092050;28;20111;-57
2021/12/18 05:10:31;;;;;;;0.93;0.40;;;;;;;;;;5093209;28;20463;-57
2021/12/18 05:12:56;;;;;;;0.60;0.50;;;;;;;;;;5092143;28;20434;-57
2021/12/18 05:15:21;;;;;;;0.52;0.52;;;;;;;;;;5091834;28;20032;-58
2021/12/18 05:17:46;;;;;;;0.65;0.32;;;;;;;;;;5092248;28;20144;-56
2021/12/18 05:20:12;;;;;;;0.30;0.30;;;;;;;;;;5087471;28;20496;-58
2021/12/18 05:22:37;;;;;;;0.80;0.40;;;;;;;;;;5072933;28;20045;-57
2021/12/18 05:25:03;;;;;;;0.52;0.40;;;;;;;;;;5072461;28;20519;-57
2021/12/18 05:27:28;;;;;;;0.28;0.28;;;;;;;;;;5075937;28;20167;-57
2021/12/18 05:29:53;;;;;;;0.55;0.40;;;;;;;;;;5092820;28;20028;-56
2021/12/18 05:32:19;;;;;;;0.32;0.32;;;;;;;;;;5096744;28;20407;-56
2021/12/18 05:34:44;;;;;;;0.40;0.30;;;;;;;;;;5097033;28;20036;-57
2021/12/18 05:39:38;;;;;;;0.70;0.40;;;;;;;;;;5096293;28;20036;-58
2021/12/18 05:42:03;;;;;;;0.60;0.40;;;;;;;;;;5096734;28;20035;-57
2021/12/18 05:44:28;;;;;;;0.63;0.30;;;;;;;;;;5095974;28;20047;-57
2021/12/18 05:46:53;;;;;;;0.30;0.22;;;;;;;;;;5098884;28;20084;-58
2021/12/18 05:49:19;;;;;;;0.30;0.30;;;;;;;;;;5096321;28;20036;-57
2021/12/18 05:51:44;;;;;;;0.70;0.40;;;;;;;;;;5096211;28;20115;-57
2021/12/18 05:54:10;;;;;;;0.38;0.20;;;;;;;;;;5096178;28;20552;-58
2021/12/18 05:56:36;;;;;;;0.55;0.47;;;;;;;;;;5095960;28;20028;-58
2021/12/18 05:59:02;;;;;;;0.20;0.20;;;;;;;;;;5095725;28;20042;-56
2021/12/18 06:01:28;;;;;;;0.40;0.30;;;;;;;;;;5096341;28;20040;-57
2021/12/18 06:03:53;;;;;;;0.30;0.28;;;;;;;;;;5098970;28;20408;-57
2021/12/18 06:06:20;;;;;;;0.40;0.30;;;;;;;;;;5107029;28;20034;-57
2021/12/18 06:08:46;;;;;;;0.40;0.40;;;;;;;;;;5104743;28;20051;-57
2021/12/18 06:11:14;;;;;;;0.75;0.32;;;;;;;;;;5110150;28;20024;-57
2021/12/18 06:13:40;;;;;;;0.43;0.32;;;;;;;;;;5116530;28;20094;-56
2021/12/18 06:16:06;;;;;;;0.40;0.40;;;;;;;;;;5112633;28;20052;-57
2021/12/18 06:18:32;;;;;;;2.47;0.40;;;;;;;;;;5115745;28;20027;-57
2021/12/18 06:20:57;;;;;;;0.88;0.60;;;;;;;;;;5112440;28;20043;-58
2021/12/18 06:23:22;;;;;;;0.68;0.40;;;;;;;;;;5103337;28;20379;-58
2021/12/18 06:25:48;;;;;;;0.40;0.30;;;;;;;;;;5095028;28;20559;-57
2021/12/18 06:28:13;;;;;;;0.32;0.32;;;;;;;;;;5094857;28;20059;-58
2021/12/18 06:30:38;;;;;;;0.55;0.40;;;;;;;;;;5100567;28;20032;-58
2021/12/18 06:33:03;;;;;;;0.30;0.20;;;;;;;;;;5105956;28;20043;-57
2021/12/18 06:35:29;;;;;;;1.58;0.40;;;;;;;;;;5105165;28;20036;-57
2021/12/18 06:37:54;;;;;;;0.40;0.40;;;;;;;;;;5103576;28;20020;-57
2021/12/18 06:40:19;;;;;;;0.28;0.28;;;;;;;;;;5106488;28;20058;-57
2021/12/18 06:42:44;;;;;;;0.60;0.40;;;;;;;;;;5104253;28;20093;-57
2021/12/18 06:45:10;;;;;;;0.47;0.30;;;;;;;;;;5104788;28;20031;-58
2021/12/18 06:47:36;;;;;;;0.30;0.30;;;;;;;;;;5105910;28;20048;-58
2021/12/18 06:50:02;;;;;;;0.30;0.30;;;;;;;;;;5103162;28;20043;-57
2021/12/18 06:52:27;;;;;;;0.30;0.30;;;;;;;;;;5105533;28;20360;-57
2021/12/18 06:54:52;;;;;;;0.77;0.30;;;;;;;;;;5105166;28;20040;-58
2021/12/18 06:57:22;;;;;;;0.68;0.30;;;;;;;;;;5103479;28;20496;-58
2021/12/18 06:59:47;;;;;;;0.40;0.40;;;;;;;;;;5104303;28;20029;-57
2021/12/18 07:02:12;;;;;;;0.43;0.30;;;;;;;;;;5103915;28;20442;-57
2021/12/18 07:04:38;;;;;;;0.25;0.20;;;;;;;;;;5104794;28;20042;-57
2021/12/18 07:07:03;;;;;;;0.30;0.30;;;;;;;;;;5105212;28;20016;-58
2021/12/18 07:09:28;;;;;;;1.13;0.30;;;;;;;;;;5103981;28;20567;-57
2021/12/18 07:11:53;;;;;;;0.55;0.40;;;;;;;;;;5111226;28;20028;-57
2021/12/18 07:14:19;;;;;;;0.40;0.30;;;;;;;;;;5102777;28;20024;-57
2021/12/18 07:16:44;;;;;;;0.60;0.30;;;;;;;;;;5105354;28;20023;-57
2021/12/18 07:19:09;;;;;;;1.58;0.30;;;;;;;;;;5103572;28;20092;-57
2021/12/18 07:21:34;;;;;;;0.28;0.20;;;;;;;;;;5085027;28;20036;-57
2021/12/18 07:24:00;;;;;;;0.30;0.25;;;;;;;;;;5105195;28;20031;-57
2021/12/18 07:26:25;;;;;;;0.52;0.47;;;;;;;;;;5103207;28;20074;-57
2021/12/18 07:28:50;;;;;;;0.80;0.60;;;;;;;;;;5085044;28;20036;-57
2021/12/18 07:31:16;;;;;;;0.45;0.38;;;;;;;;;;5102163;28;20024;-57
2021/12/18 07:33:43;;;;;;;0.32;0.32;;;;;;;;;;5104579;28;20035;-57
2021/12/18 07:36:08;;;;;;;0.30;0.30;;;;;;;;;;5103245;28;20060;-58
2021/12/18 07:38:34;;;;;;;0.45;0.35;;;;;;;;;;5097159;28;20062;-58
2021/12/18 07:40:59;;;;;;;5.53;0.25;;;;;;;;;;5098989;28;20019;-59
2021/12/18 07:43:24;;;;;;;0.73;0.40;;;;;;;;;;5097443;28;20027;-58
2021/12/18 07:45:49;;;;;;;0.90;0.70;;;;;;;;;;5096867;28;20032;-58
2021/12/18 07:48:15;;;;;;;0.40;0.40;;;;;;;;;;5095947;28;20027;-58
2021/12/18 07:50:40;;;;;;;0.40;0.40;;;;;;;;;;5093091;28;20067;-58
2021/12/18 07:53:05;;;;;;;1.27;0.75;;;;;;;;;;5092757;28;20032;-58
2021/12/18 07:55:30;;;;;;;0.43;0.43;;;;;;;;;;5086822;28;20024;-57
2021/12/18 07:57:56;;;;;;;0.70;0.50;;;;;;;;;;5088226;28;20977;-56
2021/12/18 08:00:21;;;;;;;0.93;0.70;;;;;;;;;;5087897;28;20028;-56
2021/12/18 08:02:47;;;;;;;0.63;0.60;;;;;;;;;;5090403;28;20024;-56
2021/12/18 08:05:14;;;;;;;1.20;0.63;;;;;;;;;;5087883;28;20032;-56
2021/12/18 08:07:39;;;;;;;0.75;0.50;;;;;;;;;;5088021;28;20048;-56
2021/12/18 08:10:05;;;;;;;0.57;0.47;;;;;;;;;;5083401;28;20031;-56
2021/12/18 08:12:30;;;;;;;1.17;0.55;;;;;;;;;;5085635;28;20031;-55
2021/12/18 08:14:56;;;;;;;0.60;0.43;;;;;;;;;;5090755;28;20069;-56
2021/12/18 08:17:22;;;;;;;0.70;0.47;;;;;;;;;;5089309;28;20392;-57
2021/12/18 08:19:47;;;;;;;0.95;0.70;;;;;;;;;;5072039;28;20044;-56
2021/12/18 08:22:12;;;;;;;0.55;0.40;;;;;;;;;;5091007;28;20491;-56
2021/12/18 08:24:37;;;;;;;0.50;0.40;;;;;;;;;;5089413;28;20093;-56
2021/12/18 08:27:03;;;;;;;1.20;0.60;;;;;;;;;;5089419;28;20095;-57
2021/12/18 08:29:28;;;;;;;0.50;0.50;;;;;;;;;;5089466;28;20670;-57
2021/12/18 08:31:53;;;;;;;0.50;0.40;;;;;;;;;;5089158;28;20032;-56
2021/12/18 08:34:19;;;;;;;0.50;0.32;;;;;;;;;;5096079;28;20035;-55
2021/12/18 08:36:45;;;;;;;1.17;0.60;;;;;;;;;;5089323;28;20107;-55
2021/12/18 08:39:10;;;;;;;0.60;0.40;;;;;;;;;;5089246;28;20103;-56
2021/12/18 08:41:37;;;;;;;0.60;0.40;;;;;;;;;;5088889;28;20044;-56
2021/12/18 08:44:03;;;;;;;0.38;0.32;;;;;;;;;;5089139;28;20039;-56
2021/12/18 08:46:28;;;;;;;0.30;0.30;;;;;;;;;;5093185;28;20563;-57
2021/12/18 08:48:53;;;;;;;0.30;0.20;;;;;;;;;;5088986;28;20372;-57
2021/12/18 08:51:18;;;;;;;1.40;0.32;;;;;;;;;;5089313;28;20023;-57
2021/12/18 08:53:44;;;;;;;0.68;0.43;;;;;;;;;;5089207;28;20028;-57
2021/12/18 08:56:09;;;;;;;0.38;0.30;;;;;;;;;;5088735;28;20487;-56
2021/12/18 08:58:34;;;;;;;0.22;0.15;;;;;;;;;;5086893;28;20111;-56
2021/12/18 09:01:00;;;;;;;0.60;0.50;;;;;;;;;;5082954;28;20052;-56
2021/12/18 09:03:26;;;;;;;0.60;0.35;;;;;;;;;;5082743;28;20438;-57
2021/12/18 09:05:51;;;;;;;1.52;0.65;;;;;;;;;;5091445;28;20032;-59
2021/12/18 09:08:16;;;;;;;0.73;0.30;;;;;;;;;;5091713;28;20044;-58
2021/12/18 09:10:42;;;;;;;0.50;0.30;;;;;;;;;;5091788;28;20084;-56
2021/12/18 09:13:07;;;;;;;0.20;0.15;;;;;;;;;;5091605;28;20118;-57
2021/12/18 09:15:32;;;;;;;0.63;0.30;;;;;;;;;;5091177;28;20024;-58
2021/12/18 09:17:57;;;;;;;0.15;0.15;;;;;;;;;;5090444;28;20028;-58
2021/12/18 09:20:23;;;;;;;0.40;0.20;;;;;;;;;;5094714;28;20653;-58
2021/12/18 09:22:49;;;;;;;0.38;0.20;;;;;;;;;;5102028;28;20567;-58
2021/12/18 09:25:14;;;;;;;0.75;0.30;;;;;;;;;;5101896;28;20023;-57
2021/12/18 09:27:39;;;;;;;2.22;0.25;;;;;;;;;;5102332;28;20028;-57
2021/12/18 09:30:06;;;;;;;0.47;0.30;;;;;;;;;;5113106;28;20073;-56
2021/12/18 09:32:31;;;;;;;1.35;0.47;;;;;;;;;;5100182;28;20468;-55
2021/12/18 09:34:58;;;;;;;0.32;0.20;;;;;;;;;;5091966;28;20119;-56
2021/12/18 09:37:23;;;;;;;0.50;0.30;;;;;;;;;;5112376;28;20467;-58
2021/12/18 09:39:48;;;;;;;2.60;0.82;;;;;;;;;;5097006;28;20035;-60
2021/12/18 09:42:13;;;;;;;0.35;0.22;;;;;;;;;;5096500;28;20012;-58
2021/12/18 09:44:39;;;;;;;15.93;0.47;;;;;;;;;;5106533;28;20036;-59
2021/12/18 09:47:04;;;;;;;0.73;0.30;;;;;;;;;;5101759;28;20396;-59
2021/12/18 09:49:30;;;;;;;1.48;1.00;;;;;;;;;;5102331;28;20045;-59
2021/12/18 09:51:55;;;;;;;0.47;0.25;;;;;;;;;;5102930;28;20047;-58
2021/12/18 09:54:21;;;;;;;1.30;0.20;;;;;;;;;;5102788;28;20024;-57
2021/12/18 09:56:46;;;;;;;0.30;0.20;;;;;;;;;;5103682;28;20033;-58
2021/12/18 09:59:12;;;;;;;0.57;0.20;;;;;;;;;;5100752;28;20426;-57
2021/12/18 10:01:37;;;;;;;0.60;0.30;;;;;;;;;;5096639;28;20437;-58
2021/12/18 10:04:04;;;;;;;0.30;0.20;;;;;;;;;;5096863;28;20043;-57
2021/12/18 10:06:39;;;;;;;0.32;0.20;;;;;;;;;;5106639;28;20031;-59
2021/12/18 10:09:12;;;;;;;0.40;0.20;;;;;;;;;;5110509;28;20042;-59
2021/12/18 10:11:45;;;;;;;0.90;0.20;;;;;;;;;;5107996;28;20044;-60
2021/12/18 10:14:11;;;;;;;0.93;0.35;;;;;;;;;;5113349;28;20161;-58
2021/12/18 10:16:41;;;;;;;0.35;0.20;;;;;;;;;;5111982;28;20110;-58
2021/12/18 10:19:06;;;;;;;1.08;1.02;;;;;;;;;;5114828;28;20016;-58
2021/12/18 10:21:31;;;;;;;3.03;0.40;;;;;;;;;;5109739;28;20050;-58
2021/12/18 10:24:07;;;;;;;0.22;0.22;;;;;;;;;;5112061;28;20023;-59
2021/12/18 10:26:34;;;;;;;0.30;0.30;;;;;;;;;;5109300;28;20035;-60
2021/12/18 10:28:59;;;;;;;2.58;0.38;;;;;;;;;;5093562;28;20043;-59
2021/12/18 10:31:41;;;;;;;3.92;0.50;;;;;;;;;;5095264;28;20508;-54
2021/12/18 10:34:18;;;;;;;0.57;0.40;;;;;;;;;;5099284;28;20506;-55
2021/12/18 10:37:03;;;;;;;1.67;0.52;;;;;;;;;;5102892;28;20028;-56
2021/12/18 10:39:28;;;;;;;0.80;0.73;;;;;;;;;;5103967;28;20032;-56
2021/12/18 10:41:53;;;;;;;0.70;0.40;;;;;;;;;;5101297;28;20016;-57
2021/12/18 10:44:18;;;;;;;0.45;0.20;;;;;;;;;;5096836;28;20408;-57
2021/12/18 10:46:45;;;;;;;1.67;0.70;;;;;;;;;;5098578;28;20377;-57
2021/12/18 10:49:15;;;;;;;2.83;0.40;;;;;;;;;;5097366;28;20725;-54
2021/12/18 10:51:41;;;;;;;0.63;0.30;;;;;;;;;;5100689;28;20373;-58
2021/12/18 10:54:07;;;;;;;2.58;0.40;;;;;;;;;;5101665;28;20047;-54
2021/12/18 10:56:37;;;;;;;2.90;0.50;;;;;;;;;;5105229;28;20035;-58
2021/12/18 10:59:04;;;;;;;1.00;0.50;;;;;;;;;;5082394;28;20032;-57
2021/12/18 11:01:29;;;;;;;1.38;0.73;;;;;;;;;;5103062;28;20031;-58
2021/12/18 11:03:55;;;;;;;1.75;0.50;;;;;;;;;;5104234;28;20127;-59
2021/12/18 11:06:25;;;;;;;5.60;1.00;;;;;;;;;;5100198;28;20468;-58
2021/12/18 11:08:53;;;;;;;1.85;0.82;;;;;;;;;;5103690;28;20046;-57
2021/12/18 11:14:00;;;;;;;4.40;0.40;;;;;;;;;;5095392;28;20020;-58
2021/12/18 11:16:25;;;;;;;2.92;0.30;;;;;;;;;;5105005;28;20077;-58
2021/12/18 11:18:53;;;;;;;0.55;0.30;;;;;;;;;;5109487;28;20069;-57
2021/12/18 11:21:19;;;;;;;0.70;0.30;;;;;;;;;;5105849;28;20043;-56
2021/12/18 11:23:48;;;;;;;0.80;0.50;;;;;;;;;;5096173;28;20032;-56
2021/12/18 11:26:15;;;;;;;0.90;0.50;;;;;;;;;;5095720;28;20488;-56
2021/12/18 11:28:44;;;;;;;3.00;0.68;;;;;;;;;;5110008;28;20032;-56
2021/12/18 11:31:10;;;;;;;0.57;0.30;;;;;;;;;;5092132;28;20039;-56
2021/12/18 11:33:36;;;;;;;0.90;0.40;;;;;;;;;;5107870;28;20020;-56
2021/12/18 11:36:04;;;;;;;0.80;0.35;;;;;;;;;;5108300;28;20475;-58
2021/12/18 11:38:30;;;;;;;0.63;0.50;;;;;;;;;;5104917;28;20020;-58
2021/12/18 11:40:55;;;;;;;1.25;0.45;;;;;;;;;;5101241;28;20031;-58
2021/12/18 11:43:29;;;;;;;1.17;0.50;;;;;;;;;;5100629;28;20039;-58
2021/12/18 11:45:54;;;;;;;0.68;0.30;;;;;;;;;;5095288;28;20072;-56
2021/12/18 11:48:19;;;;;;;1.92;0.50;;;;;;;;;;5096601;28;20020;-58
2021/12/18 11:50:47;;;;;;;0.40;0.25;;;;;;;;;;5096380;28;20024;-58
2021/12/18 11:53:16;;;;;;;1.73;0.45;;;;;;;;;;5100718;28;20043;-56
2021/12/18 11:55:50;;;;;;;0.80;0.50;;;;;;;;;;5101940;28;20038;-57
2021/12/18 11:58:24;;;;;;;0.60;0.28;;;;;;;;;;5106329;28;20033;-56
2021/12/18 12:00:51;;;;;;;2.38;1.23;;;;;;;;;;5091609;28;20396;-56
2021/12/18 12:03:27;;;;;;;0.52;0.32;;;;;;;;;;5086700;28;20114;-57
2021/12/18 12:05:53;;;;;;;2.38;0.65;;;;;;;;;;5098202;28;20025;-56
2021/12/18 12:08:37;;;;;;;1.65;0.77;;;;;;;;;;5097013;28;20043;-57
2021/12/18 12:11:17;;;;;;;0.95;0.30;;;;;;;;;;5095384;28;20032;-56
2021/12/18 12:14:02;;;;;;;2.58;0.70;;;;;;;;;;5092625;28;20495;-54
2021/12/18 12:16:43;;;;;;;0.60;0.40;;;;;;;;;;5089562;28;20089;-53
2021/12/18 12:19:08;;;;;;;2.92;0.60;;;;;;;;;;5092090;28;20035;-57
2021/12/18 12:21:44;;;;;;;5.75;0.77;;;;;;;;;;5099072;28;20036;-57
2021/12/18 12:24:10;;;;;;;1.45;0.50;;;;;;;;;;5089696;28;20468;-57
2021/12/18 12:26:35;;;;;;;1.33;0.45;;;;;;;;;;5090316;28;20020;-64
2021/12/18 12:29:02;;;;;;;1.05;0.47;;;;;;;;;;5089371;28;20032;-56
2021/12/18 12:31:28;;;;;;;2.17;0.70;;;;;;;;;;5090005;28;20071;-57
2021/12/18 12:34:13;;;;;;;2.05;0.80;;;;;;;;;;5089532;28;20056;-55
2021/12/18 12:36:45;;;;;;;2.78;1.00;;;;;;;;;;5087875;28;20040;-55
2021/12/18 12:39:10;;;;;;;3.75;1.55;;;;;;;;;;5089987;28;20817;-54
2021/12/18 12:41:40;;;;;;;4.20;1.05;;;;;;;;;;5089793;28;20024;-56
2021/12/18 12:44:15;;;;;;;2.47;0.90;;;;;;;;;;5089494;28;20040;-54
2021/12/18 12:46:41;;;;;;;8.18;1.20;;;;;;;;;;5089377;28;20036;-56
2021/12/18 12:49:11;;;;;;;2.05;1.33;;;;;;;;;;5099137;28;20024;-56
2021/12/18 12:51:55;;;;;;;4.65;1.48;;;;;;;;;;5097749;28;20074;-56
2021/12/18 12:54:39;;;;;;;2.95;1.27;;;;;;;;;;5096009;28;20116;-55
2021/12/18 12:57:30;;;;;;;4.35;1.13;;;;;;;;;;5074965;28;20052;-57
2021/12/18 12:59:58;;;;;;;5.60;1.00;;;;;;;;;;5084643;28;20046;-56
2021/12/18 13:02:24;;;;;;;2.67;1.00;;;;;;;;;;5090534;28;20033;-56
2021/12/18 13:04:59;;;;;;;3.00;0.93;;;;;;;;;;5090056;28;20135;-56
2021/12/18 13:07:24;;;;;;;1.35;1.10;;;;;;;;;;5089168;28;20073;-56
2021/12/18 13:09:49;;;;;;;9.20;1.02;;;;;;;;;;5088914;28;20048;-53
2021/12/18 13:12:15;;;;;;;1.83;1.23;;;;;;;;;;5089509;28;20022;-54
2021/12/18 13:14:43;;;;;;;3.20;1.13;;;;;;;;;;5089679;28;20026;-56
2021/12/18 13:17:27;;;;;;;5.10;1.20;;;;;;;;;;5089139;28;20403;-55
2021/12/18 13:19:52;;;;;;;3.75;0.98;;;;;;;;;;5094340;28;20798;-54
2021/12/18 13:22:18;;;;;;;3.43;0.90;;;;;;;;;;5099106;28;20028;-57
2021/12/18 13:24:43;;;;;;;1.50;0.95;;;;;;;;;;5098894;28;20450;-56
2021/12/18 13:27:09;;;;;;;2.55;0.90;;;;;;;;;;5081759;28;20109;-55
2021/12/18 13:29:34;;;;;;;5.47;1.38;;;;;;;;;;5092330;28;20047;-57
2021/12/18 13:32:04;;;;;;;5.10;1.10;;;;;;;;;;5088937;28;20074;-65
2021/12/18 13:34:37;;;;;;;3.22;1.00;;;;;;;;;;5087020;28;20044;-61
2021/12/18 13:37:07;;;;;;;3.47;0.93;;;;;;;;;;5091568;28;20051;-55
2021/12/18 13:39:34;;;;;;;1.95;0.77;;;;;;;;;;5089779;28;20384;-53
2021/12/18 13:42:06;;;;;;;4.22;0.98;;;;;;;;;;5088796;28;20016;-54
2021/12/18 13:44:38;;;;;;;2.78;1.23;;;;;;;;;;5076490;28;20055;-54
2021/12/18 13:47:14;;;;;;;2.72;0.90;;;;;;;;;;5096690;28;20134;-54
2021/12/18 13:49:39;;;;;;;2.33;0.90;;;;;;;;;;5104147;28;20472;-53
2021/12/18 13:52:05;;;;;;;3.58;0.90;;;;;;;;;;5101510;28;20039;-53
2021/12/18 13:54:33;;;;;;;5.88;0.85;;;;;;;;;;5103033;28;20050;-53
2021/12/18 13:56:58;;;;;;;3.15;0.82;;;;;;;;;;5100705;28;20030;-54
2021/12/18 13:59:23;;;;;;;3.03;0.90;;;;;;;;;;5103698;28;20027;-54
2021/12/18 14:01:50;;;;;;;1.10;0.80;;;;;;;;;;5101106;28;20553;-54
2021/12/18 14:04:17;;;;;;;2.08;0.95;;;;;;;;;;5101862;28;20556;-54
2021/12/18 14:06:43;;;;;;;3.47;0.95;;;;;;;;;;5103380;28;20036;-54
2021/12/18 14:09:19;;;;;;;1.90;0.82;;;;;;;;;;5100857;28;20051;-56
2021/12/18 14:11:58;;;;;;;3.72;1.10;;;;;;;;;;5099391;28;20036;-57
2021/12/18 14:14:42;;;;;;;1.63;0.68;;;;;;;;;;5100848;28;20032;-55
2021/12/18 14:17:09;;;;;;;5.00;1.20;;;;;;;;;;5100719;28;20138;-55
2021/12/18 14:19:36;;;;;;;1.60;1.20;;;;;;;;;;5101611;28;20560;-55
2021/12/18 14:22:03;;;;;;;2.58;1.30;;;;;;;;;;5093776;28;20514;-55
2021/12/18 14:24:28;;;;;;;0.52;0.52;;;;;;;;;;5102758;28;20073;-55
2021/12/18 14:27:05;;;;;;;1.67;0.70;;;;;;;;;;5101552;28;20032;-55
2021/12/18 14:29:32;;;;;;;1.63;0.90;;;;;;;;;;5098616;28;20020;-55
2021/12/18 14:31:58;;;;;;;3.63;1.20;;;;;;;;;;5101651;28;20036;-55
2021/12/18 14:34:25;;;;;;;2.38;1.38;;;;;;;;;;5100469;28;20028;-54
2021/12/18 14:36:56;;;;;;;2.13;1.00;;;;;;;;;;5101383;28;20392;-56
2021/12/18 14:39:48;;;;;;;1.17;0.77;;;;;;;;;;5098321;28;20053;-56
2021/12/18 14:42:21;;;;;;;1.20;0.75;;;;;;;;;;5096127;28;20534;-55
2021/12/18 14:44:49;;;;;;;2.33;0.90;;;;;;;;;;5085349;28;20122;-55
2021/12/18 14:47:22;;;;;;;2.00;1.13;;;;;;;;;;5101145;28;20152;-56
2021/12/18 14:50:09;;;;;;;2.53;1.35;;;;;;;;;;5097979;28;20043;-56
2021/12/18 14:52:55;;;;;;;2.05;1.52;;;;;;;;;;5099374;28;20107;-55
2021/12/18 14:55:31;;;;;;;2.53;1.00;;;;;;;;;;5100481;28;20480;-55
2021/12/18 14:58:07;;;;;;;3.60;0.93;;;;;;;;;;5098324;28;20535;-55
2021/12/18 15:00:45;;;;;;;4.05;1.40;;;;;;;;;;5080733;28;20282;-54
2021/12/18 15:03:16;;;;;;;1.90;1.10;;;;;;;;;;5092048;28;20055;-53
2021/12/18 15:05:46;;;;;;;4.18;1.25;;;;;;;;;;5091424;28;20073;-54
2021/12/18 15:08:18;;;;;;;2.00;1.27;;;;;;;;;;5090871;28;20040;-52
2021/12/18 15:10:55;;;;;;;5.10;2.03;;;;;;;;;;5090911;28;20028;-56
2021/12/18 15:13:21;;;;;;;1.85;1.55;;;;;;;;;;5098623;28;20123;-57
2021/12/18 15:15:47;;;;;;;4.78;1.48;;;;;;;;;;5096434;28;20534;-57
2021/12/18 15:18:13;;;;;;;2.35;1.65;;;;;;;;;;5093232;28;20375;-56
2021/12/18 15:20:38;;;;;;;3.42;1.23;;;;;;;;;;5100081;28;20031;-57
2021/12/18 15:23:04;;;;;;;7.50;1.98;;;;;;;;;;5083997;28;20058;-56
2021/12/18 15:25:29;;;;;;;1.85;1.40;;;;;;;;;;5099866;28;20036;-56
2021/12/18 15:27:55;;;;;;;1.90;1.50;;;;;;;;;;5116012;27;20028;-56
2021/12/18 15:30:20;;;;;;;4.88;1.83;;;;;;;;;;5077002;28;20874;-55